sensor_id;sensor_type;location;lat;lon;timestamp;temperature;humidity
1137;DHT22;557;48.466;7.950;2022-08-03T00:00:38;20.40;1.00
1137;DHT22;557;48.466;7.950;2022-08-03T00:03:24;20.40;99.90
1137;DHT22;557;48.466;7.950;2022-08-03T00:06:10;20.30;99.90
1137;DHT22;557;48.466;7.950;2022-08-03T00:08:57;20.30;20.20
1137;DHT22;557;48.466;7.950;2022-08-03T00:11:43;20.20;99.90
1137;DHT22;557;48.466;7.950;2022-08-03T00:14:28;20.20;99.90
1137;DHT22;557;48.466;7.950;2022-08-03T00:17:14;20.20;99.90
1137;DHT22;557;48.466;7.950;2022-08-03T00:20:00;20.10;99.90
1137;DHT22;557;48.466;7.950;2022-08-03T00:22:45;20.10;99.90
1137;DHT22;557;48.466;7.950;2022-08-03T00:25:33;20.10;99.90
1137;DHT22;557;48.466;7.950;2022-08-03T00:28:19;20.10;99.90
1137;DHT22;557;48.466;7.950;2022-08-03T00:31:05;20.10;99.90
1137;DHT22;557;48.466;7.950;2022-08-03T00:33:51;20.00;99.90
1137;DHT22;557;48.466;7.950;2022-08-03T00:36:37;20.00;99.90
1137;DHT22;557;48.466;7.950;2022-08-03T00:39:23;20.00;1.00
1137;DHT22;557;48.466;7.950;2022-08-03T00:42:10;20.00;11.20
1137;DHT22;557;48.466;7.950;2022-08-03T00:44:55;19.90;99.90
1137;DHT22;557;48.466;7.950;2022-08-03T00:47:41;19.90;99.90
1137;DHT22;557;48.466;7.950;2022-08-03T00:50:30;19.90;99.90
1137;DHT22;557;48.466;7.950;2022-08-03T00:53:17;19.80;99.90
1137;DHT22;557;48.466;7.950;2022-08-03T00:56:03;19.80;1.00
1137;DHT22;557;48.466;7.950;2022-08-03T00:58:51;19.70;99.90
1137;DHT22;557;48.466;7.950;2022-08-03T01:01:40;19.70;1.00
1137;DHT22;557;48.466;7.950;2022-08-03T01:04:32;19.70;99.90
1137;DHT22;557;48.466;7.950;2022-08-03T01:07:22;19.60;99.90
1137;DHT22;557;48.466;7.950;2022-08-03T01:10:18;19.60;1.00
1137;DHT22;557;48.466;7.950;2022-08-03T01:13:17;19.60;1.00
1137;DHT22;557;48.466;7.950;2022-08-03T01:16:10;19.50;1.00
1137;DHT22;557;48.466;7.950;2022-08-03T01:19:01;19.40;1.00
1137;DHT22;557;48.466;7.950;2022-08-03T01:22:02;19.40;1.00
1137;DHT22;557;48.466;7.950;2022-08-03T01:24:58;19.30;1.00
1137;DHT22;557;48.466;7.950;2022-08-03T01:27:53;19.30;1.00
1137;DHT22;557;48.466;7.950;2022-08-03T01:30:44;19.30;1.00
1137;DHT22;557;48.466;7.950;2022-08-03T01:33:35;19.20;1.00
1137;DHT22;557;48.466;7.950;2022-08-03T01:36:23;19.20;1.00
1137;DHT22;557;48.466;7.950;2022-08-03T01:39:09;19.20;1.00
1137;DHT22;557;48.466;7.950;2022-08-03T01:41:58;19.10;1.00
1137;DHT22;557;48.466;7.950;2022-08-03T01:44:51;19.10;1.00
1137;DHT22;557;48.466;7.950;2022-08-03T01:47:39;19.10;1.00
1137;DHT22;557;48.466;7.950;2022-08-03T01:50:28;19.10;1.00
1137;DHT22;557;48.466;7.950;2022-08-03T01:53:14;19.10;1.00
1137;DHT22;557;48.466;7.950;2022-08-03T01:56:01;19.10;1.00
1137;DHT22;557;48.466;7.950;2022-08-03T01:58:49;19.10;1.00
1137;DHT22;557;48.466;7.950;2022-08-03T02:01:36;19.10;1.00
1137;DHT22;557;48.466;7.950;2022-08-03T02:04:24;19.10;1.00
1137;DHT22;557;48.466;7.950;2022-08-03T02:07:13;19.10;1.00
1137;DHT22;557;48.466;7.950;2022-08-03T02:10:00;19.10;1.00
1137;DHT22;557;48.466;7.950;2022-08-03T02:12:47;19.10;1.00
1137;DHT22;557;48.466;7.950;2022-08-03T02:15:36;19.10;1.00
1137;DHT22;557;48.466;7.950;2022-08-03T02:18:23;19.10;1.00
1137;DHT22;557;48.466;7.950;2022-08-03T02:21:12;19.10;1.00
1137;DHT22;557;48.466;7.950;2022-08-03T02:23:59;19.10;1.00
1137;DHT22;557;48.466;7.950;2022-08-03T02:26:46;19.10;1.00
1137;DHT22;557;48.466;7.950;2022-08-03T02:29:35;19.00;1.00
1137;DHT22;557;48.466;7.950;2022-08-03T02:32:26;19.00;1.00
1137;DHT22;557;48.466;7.950;2022-08-03T02:35:16;19.00;1.00
1137;DHT22;557;48.466;7.950;2022-08-03T02:38:07;19.00;1.00
1137;DHT22;557;48.466;7.950;2022-08-03T02:40:55;18.90;1.00
1137;DHT22;557;48.466;7.950;2022-08-03T02:43:45;18.90;1.00
1137;DHT22;557;48.466;7.950;2022-08-03T02:46:36;18.90;1.00
1137;DHT22;557;48.466;7.950;2022-08-03T02:49:24;18.80;1.00
1137;DHT22;557;48.466;7.950;2022-08-03T02:52:11;18.80;1.00
1137;DHT22;557;48.466;7.950;2022-08-03T02:55:01;18.80;1.00
1137;DHT22;557;48.466;7.950;2022-08-03T02:57:48;18.80;1.00
1137;DHT22;557;48.466;7.950;2022-08-03T03:00:35;18.70;1.00
1137;DHT22;557;48.466;7.950;2022-08-03T03:03:22;18.70;1.00
1137;DHT22;557;48.466;7.950;2022-08-03T03:06:09;18.70;1.00
1137;DHT22;557;48.466;7.950;2022-08-03T03:08:55;18.70;1.00
1137;DHT22;557;48.466;7.950;2022-08-03T03:11:43;18.70;1.00
1137;DHT22;557;48.466;7.950;2022-08-03T03:14:30;18.70;1.00
1137;DHT22;557;48.466;7.950;2022-08-03T03:17:17;18.70;1.00
1137;DHT22;557;48.466;7.950;2022-08-03T03:20:05;18.60;1.00
1137;DHT22;557;48.466;7.950;2022-08-03T03:22:52;18.60;1.00
1137;DHT22;557;48.466;7.950;2022-08-03T03:25:39;18.50;1.00
1137;DHT22;557;48.466;7.950;2022-08-03T03:28:27;18.50;1.00
1137;DHT22;557;48.466;7.950;2022-08-03T03:31:14;18.40;7.50
1137;DHT22;557;48.466;7.950;2022-08-03T03:34:00;18.40;7.50
1137;DHT22;557;48.466;7.950;2022-08-03T03:36:46;18.40;1.00
1137;DHT22;557;48.466;7.950;2022-08-03T03:39:32;18.40;8.70
1137;DHT22;557;48.466;7.950;2022-08-03T03:42:19;18.40;1.40
1137;DHT22;557;48.466;7.950;2022-08-03T03:45:08;18.40;1.00
1137;DHT22;557;48.466;7.950;2022-08-03T03:47:54;18.30;1.00
1137;DHT22;557;48.466;7.950;2022-08-03T03:50:42;18.30;1.00
1137;DHT22;557;48.466;7.950;2022-08-03T03:53:29;18.30;25.50
1137;DHT22;557;48.466;7.950;2022-08-03T03:56:14;18.30;27.00
1137;DHT22;557;48.466;7.950;2022-08-03T03:59:00;18.30;16.40
1137;DHT22;557;48.466;7.950;2022-08-03T04:01:47;18.30;29.10
1137;DHT22;557;48.466;7.950;2022-08-03T04:04:33;18.20;42.70
1137;DHT22;557;48.466;7.950;2022-08-03T04:07:45;18.30;34.30
1137;DHT22;557;48.466;7.950;2022-08-03T04:10:55;18.20;34.10
1137;DHT22;557;48.466;7.950;2022-08-03T04:13:50;18.20;33.60
1137;DHT22;557;48.466;7.950;2022-08-03T04:16:40;18.30;34.30
1137;DHT22;557;48.466;7.950;2022-08-03T04:19:33;18.20;11.20
1137;DHT22;557;48.466;7.950;2022-08-03T04:22:23;18.20;16.70
1137;DHT22;557;48.466;7.950;2022-08-03T04:25:14;18.30;25.80
1137;DHT22;557;48.466;7.950;2022-08-03T04:28:03;18.30;16.60
1137;DHT22;557;48.466;7.950;2022-08-03T04:30:51;18.30;6.60
1137;DHT22;557;48.466;7.950;2022-08-03T04:33:38;18.30;1.00
1137;DHT22;557;48.466;7.950;2022-08-03T04:36:31;18.30;1.00
1137;DHT22;557;48.466;7.950;2022-08-03T04:39:23;18.40;1.00
1137;DHT22;557;48.466;7.950;2022-08-03T04:42:11;18.50;1.00
1137;DHT22;557;48.466;7.950;2022-08-03T04:45:00;18.50;1.00
1137;DHT22;557;48.466;7.950;2022-08-03T04:47:48;18.40;1.00
1137;DHT22;557;48.466;7.950;2022-08-03T04:50:35;18.40;1.00
1137;DHT22;557;48.466;7.950;2022-08-03T04:53:22;18.40;1.00
1137;DHT22;557;48.466;7.950;2022-08-03T04:56:08;18.40;1.00
1137;DHT22;557;48.466;7.950;2022-08-03T04:58:54;18.50;1.00
1137;DHT22;557;48.466;7.950;2022-08-03T05:01:40;18.60;1.00
1137;DHT22;557;48.466;7.950;2022-08-03T05:04:25;18.60;1.00
1137;DHT22;557;48.466;7.950;2022-08-03T05:07:11;18.70;1.00
1137;DHT22;557;48.466;7.950;2022-08-03T05:09:58;18.80;1.00
1137;DHT22;557;48.466;7.950;2022-08-03T05:12:45;19.00;1.00
1137;DHT22;557;48.466;7.950;2022-08-03T05:15:31;19.10;1.00
1137;DHT22;557;48.466;7.950;2022-08-03T05:18:19;19.20;1.00
1137;DHT22;557;48.466;7.950;2022-08-03T05:21:05;19.30;1.00
1137;DHT22;557;48.466;7.950;2022-08-03T05:23:51;19.40;1.00
1137;DHT22;557;48.466;7.950;2022-08-03T05:26:38;19.50;1.00
1137;DHT22;557;48.466;7.950;2022-08-03T05:29:23;19.70;1.00
1137;DHT22;557;48.466;7.950;2022-08-03T05:32:09;19.90;99.90
1137;DHT22;557;48.466;7.950;2022-08-03T05:34:55;20.10;99.90
1137;DHT22;557;48.466;7.950;2022-08-03T05:37:55;20.20;99.90
1137;DHT22;557;48.466;7.950;2022-08-03T05:40:41;20.40;1.00
1137;DHT22;557;48.466;7.950;2022-08-03T05:43:29;20.50;1.00
1137;DHT22;557;48.466;7.950;2022-08-03T05:46:15;20.70;73.80
1137;DHT22;557;48.466;7.950;2022-08-03T05:49:01;20.80;99.90
1137;DHT22;557;48.466;7.950;2022-08-03T05:51:48;20.90;1.00
1137;DHT22;557;48.466;7.950;2022-08-03T05:54:33;21.00;1.00
1137;DHT22;557;48.466;7.950;2022-08-03T05:57:19;21.10;1.00
1137;DHT22;557;48.466;7.950;2022-08-03T06:00:08;21.20;1.00
1137;DHT22;557;48.466;7.950;2022-08-03T06:02:54;21.30;99.90
1137;DHT22;557;48.466;7.950;2022-08-03T06:05:40;21.20;1.00
1137;DHT22;557;48.466;7.950;2022-08-03T06:08:26;21.30;1.00
1137;DHT22;557;48.466;7.950;2022-08-03T06:11:12;21.30;1.00
1137;DHT22;557;48.466;7.950;2022-08-03T06:13:57;21.30;99.90
1137;DHT22;557;48.466;7.950;2022-08-03T06:16:44;21.50;99.90
1137;DHT22;557;48.466;7.950;2022-08-03T06:19:30;21.60;26.20
1137;DHT22;557;48.466;7.950;2022-08-03T06:22:16;21.70;1.00
1137;DHT22;557;48.466;7.950;2022-08-03T06:25:02;21.80;1.00
1137;DHT22;557;48.466;7.950;2022-08-03T06:27:47;21.80;99.90
1137;DHT22;557;48.466;7.950;2022-08-03T06:30:33;21.80;99.90
1137;DHT22;557;48.466;7.950;2022-08-03T06:33:20;21.80;99.90
1137;DHT22;557;48.466;7.950;2022-08-03T06:36:06;21.80;99.90
1137;DHT22;557;48.466;7.950;2022-08-03T06:38:52;21.90;99.90
1137;DHT22;557;48.466;7.950;2022-08-03T06:41:38;21.90;99.90
1137;DHT22;557;48.466;7.950;2022-08-03T06:44:24;22.00;99.90
1137;DHT22;557;48.466;7.950;2022-08-03T06:47:09;22.00;53.30
1137;DHT22;557;48.466;7.950;2022-08-03T06:49:56;22.10;88.10
1137;DHT22;557;48.466;7.950;2022-08-03T06:52:42;22.20;1.00
1137;DHT22;557;48.466;7.950;2022-08-03T06:55:28;22.20;1.00
1137;DHT22;557;48.466;7.950;2022-08-03T06:58:14;22.30;1.00
1137;DHT22;557;48.466;7.950;2022-08-03T07:01:00;22.40;1.00
1137;DHT22;557;48.466;7.950;2022-08-03T07:03:45;22.60;1.00
1137;DHT22;557;48.466;7.950;2022-08-03T07:06:33;22.70;1.00
1137;DHT22;557;48.466;7.950;2022-08-03T07:09:18;22.90;1.00
1137;DHT22;557;48.466;7.950;2022-08-03T07:12:19;23.00;1.00
1137;DHT22;557;48.466;7.950;2022-08-03T07:15:06;23.20;1.00
1137;DHT22;557;48.466;7.950;2022-08-03T07:17:52;23.40;99.90
1137;DHT22;557;48.466;7.950;2022-08-03T07:20:38;23.60;99.90
1137;DHT22;557;48.466;7.950;2022-08-03T07:23:25;23.60;99.90
1137;DHT22;557;48.466;7.950;2022-08-03T07:26:12;23.70;99.90
1137;DHT22;557;48.466;7.950;2022-08-03T07:28:57;23.90;99.90
1137;DHT22;557;48.466;7.950;2022-08-03T07:31:44;24.00;99.90
1137;DHT22;557;48.466;7.950;2022-08-03T07:34:30;24.20;99.90
1137;DHT22;557;48.466;7.950;2022-08-03T07:37:16;24.30;99.90
1137;DHT22;557;48.466;7.950;2022-08-03T07:40:04;24.40;99.90
1137;DHT22;557;48.466;7.950;2022-08-03T07:42:51;24.70;99.90
1137;DHT22;557;48.466;7.950;2022-08-03T07:45:36;25.00;99.90
1137;DHT22;557;48.466;7.950;2022-08-03T07:48:22;25.20;99.90
1137;DHT22;557;48.466;7.950;2022-08-03T07:51:07;25.30;99.90
1137;DHT22;557;48.466;7.950;2022-08-03T07:53:53;25.30;99.90
1137;DHT22;557;48.466;7.950;2022-08-03T07:56:42;25.40;99.90
1137;DHT22;557;48.466;7.950;2022-08-03T07:59:27;25.70;99.90
1137;DHT22;557;48.466;7.950;2022-08-03T08:02:13;25.90;99.90
1137;DHT22;557;48.466;7.950;2022-08-03T08:04:59;26.10;99.90
1137;DHT22;557;48.466;7.950;2022-08-03T08:07:45;26.30;99.90
1137;DHT22;557;48.466;7.950;2022-08-03T08:10:31;26.40;99.90
1137;DHT22;557;48.466;7.950;2022-08-03T08:13:18;26.50;99.90
1137;DHT22;557;48.466;7.950;2022-08-03T08:16:04;26.50;99.90
1137;DHT22;557;48.466;7.950;2022-08-03T08:18:50;27.00;99.90
1137;DHT22;557;48.466;7.950;2022-08-03T08:21:36;27.10;99.90
1137;DHT22;557;48.466;7.950;2022-08-03T08:24:22;27.10;99.90
1137;DHT22;557;48.466;7.950;2022-08-03T08:27:08;27.10;99.90
1137;DHT22;557;48.466;7.950;2022-08-03T08:30:05;27.30;99.90
1137;DHT22;557;48.466;7.950;2022-08-03T08:32:52;27.50;99.90
1137;DHT22;557;48.466;7.950;2022-08-03T08:35:37;27.50;99.90
1137;DHT22;557;48.466;7.950;2022-08-03T08:38:23;27.70;99.90
1137;DHT22;557;48.466;7.950;2022-08-03T08:41:10;28.10;98.90
1137;DHT22;557;48.466;7.950;2022-08-03T08:43:56;28.30;93.80
1137;DHT22;557;48.466;7.950;2022-08-03T08:46:44;28.60;81.50
1137;DHT22;557;48.466;7.950;2022-08-03T08:49:32;28.40;65.40
1137;DHT22;557;48.466;7.950;2022-08-03T08:52:24;28.40;60.00
1137;DHT22;557;48.466;7.950;2022-08-03T08:55:14;28.50;50.90
1137;DHT22;557;48.466;7.950;2022-08-03T08:58:05;28.40;50.00
1137;DHT22;557;48.466;7.950;2022-08-03T09:00:52;28.80;53.80
1137;DHT22;557;48.466;7.950;2022-08-03T09:03:40;29.20;43.30
1137;DHT22;557;48.466;7.950;2022-08-03T09:06:26;29.40;47.70
1137;DHT22;557;48.466;7.950;2022-08-03T09:09:11;29.60;34.70
1137;DHT22;557;48.466;7.950;2022-08-03T09:11:58;29.50;28.80
1137;DHT22;557;48.466;7.950;2022-08-03T09:14:46;29.60;28.80
1137;DHT22;557;48.466;7.950;2022-08-03T09:17:39;29.90;25.90
1137;DHT22;557;48.466;7.950;2022-08-03T09:20:28;30.10;29.40
1137;DHT22;557;48.466;7.950;2022-08-03T09:23:14;30.40;28.10
1137;DHT22;557;48.466;7.950;2022-08-03T09:26:00;30.80;25.70
1137;DHT22;557;48.466;7.950;2022-08-03T09:28:53;31.00;29.90
1137;DHT22;557;48.466;7.950;2022-08-03T09:31:42;31.20;16.90
1137;DHT22;557;48.466;7.950;2022-08-03T09:34:28;31.00;12.60
1137;DHT22;557;48.466;7.950;2022-08-03T09:37:17;30.70;10.50
1137;DHT22;557;48.466;7.950;2022-08-03T09:40:06;30.80;9.50
1137;DHT22;557;48.466;7.950;2022-08-03T09:42:55;30.70;5.50
1137;DHT22;557;48.466;7.950;2022-08-03T09:45:41;30.80;4.20
1137;DHT22;557;48.466;7.950;2022-08-03T09:48:29;30.90;3.50
1137;DHT22;557;48.466;7.950;2022-08-03T09:51:15;31.10;11.50
1137;DHT22;557;48.466;7.950;2022-08-03T09:54:03;31.40;5.40
1137;DHT22;557;48.466;7.950;2022-08-03T09:56:49;31.80;1.60
1137;DHT22;557;48.466;7.950;2022-08-03T09:59:35;31.70;1.00
1137;DHT22;557;48.466;7.950;2022-08-03T10:02:22;31.90;1.00
1137;DHT22;557;48.466;7.950;2022-08-03T10:05:09;32.20;1.00
1137;DHT22;557;48.466;7.950;2022-08-03T10:07:55;32.50;1.00
1137;DHT22;557;48.466;7.950;2022-08-03T10:10:43;32.40;1.00
1137;DHT22;557;48.466;7.950;2022-08-03T10:13:29;32.30;1.00
1137;DHT22;557;48.466;7.950;2022-08-03T10:16:15;32.50;1.00
1137;DHT22;557;48.466;7.950;2022-08-03T10:19:01;32.20;1.00
1137;DHT22;557;48.466;7.950;2022-08-03T10:21:49;32.50;1.00
1137;DHT22;557;48.466;7.950;2022-08-03T10:24:39;32.90;1.00
1137;DHT22;557;48.466;7.950;2022-08-03T10:27:34;33.00;1.00
1137;DHT22;557;48.466;7.950;2022-08-03T10:30:21;33.40;1.00
1137;DHT22;557;48.466;7.950;2022-08-03T10:33:14;33.10;1.00
1137;DHT22;557;48.466;7.950;2022-08-03T10:36:01;32.80;1.00
1137;DHT22;557;48.466;7.950;2022-08-03T10:38:50;32.70;1.00
1137;DHT22;557;48.466;7.950;2022-08-03T10:41:39;33.10;1.00
1137;DHT22;557;48.466;7.950;2022-08-03T10:44:32;33.40;1.00
1137;DHT22;557;48.466;7.950;2022-08-03T10:47:21;33.40;1.00
1137;DHT22;557;48.466;7.950;2022-08-03T10:50:09;33.80;1.00
1137;DHT22;557;48.466;7.950;2022-08-03T10:52:56;34.20;1.00
1137;DHT22;557;48.466;7.950;2022-08-03T10:55:44;34.50;1.00
1137;DHT22;557;48.466;7.950;2022-08-03T10:58:49;34.40;1.00
1137;DHT22;557;48.466;7.950;2022-08-03T11:01:52;34.30;1.00
1137;DHT22;557;48.466;7.950;2022-08-03T11:04:38;34.10;1.00
1137;DHT22;557;48.466;7.950;2022-08-03T11:07:24;34.10;1.00
1137;DHT22;557;48.466;7.950;2022-08-03T11:10:28;34.10;1.00
1137;DHT22;557;48.466;7.950;2022-08-03T11:13:16;34.10;1.00
1137;DHT22;557;48.466;7.950;2022-08-03T11:16:17;34.50;1.00
1137;DHT22;557;48.466;7.950;2022-08-03T11:19:07;34.40;1.00
1137;DHT22;557;48.466;7.950;2022-08-03T11:21:56;34.40;1.00
1137;DHT22;557;48.466;7.950;2022-08-03T11:25:01;34.00;1.00
1137;DHT22;557;48.466;7.950;2022-08-03T11:27:47;34.20;1.00
1137;DHT22;557;48.466;7.950;2022-08-03T11:30:33;34.70;1.00
1137;DHT22;557;48.466;7.950;2022-08-03T11:33:28;35.30;1.00
1137;DHT22;557;48.466;7.950;2022-08-03T11:36:16;35.60;1.00
1137;DHT22;557;48.466;7.950;2022-08-03T11:39:14;35.00;1.00
1137;DHT22;557;48.466;7.950;2022-08-03T11:42:00;35.00;1.00
1137;DHT22;557;48.466;7.950;2022-08-03T11:45:08;35.40;1.00
1137;DHT22;557;48.466;7.950;2022-08-03T11:47:54;35.60;1.00
1137;DHT22;557;48.466;7.950;2022-08-03T11:50:42;35.30;1.00
1137;DHT22;557;48.466;7.950;2022-08-03T11:53:30;35.60;1.00
1137;DHT22;557;48.466;7.950;2022-08-03T11:56:17;36.20;1.00
1137;DHT22;557;48.466;7.950;2022-08-03T11:59:03;36.70;1.00
1137;DHT22;557;48.466;7.950;2022-08-03T12:01:49;36.30;1.00
1137;DHT22;557;48.466;7.950;2022-08-03T12:04:48;36.40;1.00
1137;DHT22;557;48.466;7.950;2022-08-03T12:08:08;36.40;1.00
1137;DHT22;557;48.466;7.950;2022-08-03T12:10:57;36.40;1.00
1137;DHT22;557;48.466;7.950;2022-08-03T12:13:47;36.40;1.00
1137;DHT22;557;48.466;7.950;2022-08-03T12:16:40;36.20;1.00
1137;DHT22;557;48.466;7.950;2022-08-03T12:19:40;36.00;1.00
1137;DHT22;557;48.466;7.950;2022-08-03T12:22:33;36.00;1.00
1137;DHT22;557;48.466;7.950;2022-08-03T12:25:23;36.00;1.00
1137;DHT22;557;48.466;7.950;2022-08-03T12:28:13;36.40;1.00
1137;DHT22;557;48.466;7.950;2022-08-03T12:31:03;37.10;1.00
1137;DHT22;557;48.466;7.950;2022-08-03T12:33:58;37.10;1.00
1137;DHT22;557;48.466;7.950;2022-08-03T12:36:50;37.70;1.00
1137;DHT22;557;48.466;7.950;2022-08-03T12:39:36;38.30;1.00
1137;DHT22;557;48.466;7.950;2022-08-03T12:42:29;38.70;1.00
1137;DHT22;557;48.466;7.950;2022-08-03T12:45:20;38.80;1.00
1137;DHT22;557;48.466;7.950;2022-08-03T12:48:08;38.70;1.00
1137;DHT22;557;48.466;7.950;2022-08-03T12:51:07;38.70;1.00
1137;DHT22;557;48.466;7.950;2022-08-03T12:53:53;39.00;1.00
1137;DHT22;557;48.466;7.950;2022-08-03T12:56:57;38.40;1.00
1137;DHT22;557;48.466;7.950;2022-08-03T12:59:43;37.70;1.00
1137;DHT22;557;48.466;7.950;2022-08-03T13:02:33;37.60;1.00
1137;DHT22;557;48.466;7.950;2022-08-03T13:05:18;37.90;1.00
1137;DHT22;557;48.466;7.950;2022-08-03T13:08:17;38.20;1.00
1137;DHT22;557;48.466;7.950;2022-08-03T13:11:22;38.50;1.00
1137;DHT22;557;48.466;7.950;2022-08-03T13:14:08;39.20;1.00
1137;DHT22;557;48.466;7.950;2022-08-03T13:16:54;39.00;1.00
1137;DHT22;557;48.466;7.950;2022-08-03T13:19:42;38.40;1.00
1137;DHT22;557;48.466;7.950;2022-08-03T13:22:27;38.10;1.00
1137;DHT22;557;48.466;7.950;2022-08-03T13:25:13;38.20;1.00
1137;DHT22;557;48.466;7.950;2022-08-03T13:27:59;38.50;1.00
1137;DHT22;557;48.466;7.950;2022-08-03T13:30:44;38.40;1.00
1137;DHT22;557;48.466;7.950;2022-08-03T13:33:30;38.40;1.00
1137;DHT22;557;48.466;7.950;2022-08-03T13:36:17;38.30;1.00
1137;DHT22;557;48.466;7.950;2022-08-03T13:39:03;38.90;1.00
1137;DHT22;557;48.466;7.950;2022-08-03T13:41:49;39.70;1.00
1137;DHT22;557;48.466;7.950;2022-08-03T13:44:35;39.50;1.00
1137;DHT22;557;48.466;7.950;2022-08-03T13:47:21;39.40;1.00
1137;DHT22;557;48.466;7.950;2022-08-03T13:50:07;38.80;1.00
1137;DHT22;557;48.466;7.950;2022-08-03T13:52:54;38.70;1.00
1137;DHT22;557;48.466;7.950;2022-08-03T13:55:40;39.00;1.00
1137;DHT22;557;48.466;7.950;2022-08-03T13:58:26;39.60;1.00
1137;DHT22;557;48.466;7.950;2022-08-03T14:01:12;39.90;1.00
1137;DHT22;557;48.466;7.950;2022-08-03T14:03:57;39.50;1.00
1137;DHT22;557;48.466;7.950;2022-08-03T14:06:44;39.00;1.00
1137;DHT22;557;48.466;7.950;2022-08-03T14:09:30;38.50;1.00
1137;DHT22;557;48.466;7.950;2022-08-03T14:12:16;38.00;1.00
1137;DHT22;557;48.466;7.950;2022-08-03T14:15:03;37.70;1.00
1137;DHT22;557;48.466;7.950;2022-08-03T14:17:53;37.90;1.00
1137;DHT22;557;48.466;7.950;2022-08-03T14:20:39;38.40;1.00
1137;DHT22;557;48.466;7.950;2022-08-03T14:23:25;38.60;1.00
1137;DHT22;557;48.466;7.950;2022-08-03T14:26:12;38.20;1.00
1137;DHT22;557;48.466;7.950;2022-08-03T14:28:58;37.80;1.00
1137;DHT22;557;48.466;7.950;2022-08-03T14:31:44;38.00;1.00
1137;DHT22;557;48.466;7.950;2022-08-03T14:34:30;38.10;1.00
1137;DHT22;557;48.466;7.950;2022-08-03T14:37:15;38.10;1.00
1137;DHT22;557;48.466;7.950;2022-08-03T14:40:01;38.30;1.00
1137;DHT22;557;48.466;7.950;2022-08-03T14:42:48;38.30;1.00
1137;DHT22;557;48.466;7.950;2022-08-03T14:45:34;37.80;1.00
1137;DHT22;557;48.466;7.950;2022-08-03T14:48:21;37.80;1.00
1137;DHT22;557;48.466;7.950;2022-08-03T14:51:06;37.70;1.00
1137;DHT22;557;48.466;7.950;2022-08-03T14:53:52;37.70;1.00
1137;DHT22;557;48.466;7.950;2022-08-03T14:56:38;37.70;1.00
1137;DHT22;557;48.466;7.950;2022-08-03T14:59:25;37.90;1.00
1137;DHT22;557;48.466;7.950;2022-08-03T15:02:12;37.80;1.00
1137;DHT22;557;48.466;7.950;2022-08-03T15:04:58;37.50;1.00
1137;DHT22;557;48.466;7.950;2022-08-03T15:07:44;37.50;1.00
1137;DHT22;557;48.466;7.950;2022-08-03T15:10:29;37.60;1.00
1137;DHT22;557;48.466;7.950;2022-08-03T15:13:16;37.70;1.00
1137;DHT22;557;48.466;7.950;2022-08-03T15:16:03;38.00;1.00
1137;DHT22;557;48.466;7.950;2022-08-03T15:18:49;38.10;1.00
1137;DHT22;557;48.466;7.950;2022-08-03T15:21:35;38.00;1.00
1137;DHT22;557;48.466;7.950;2022-08-03T15:24:20;38.10;1.00
1137;DHT22;557;48.466;7.950;2022-08-03T15:27:06;38.20;1.00
1137;DHT22;557;48.466;7.950;2022-08-03T15:29:52;38.60;1.00
1137;DHT22;557;48.466;7.950;2022-08-03T15:32:39;39.00;1.00
1137;DHT22;557;48.466;7.950;2022-08-03T15:35:25;38.60;1.00
1137;DHT22;557;48.466;7.950;2022-08-03T15:38:12;38.80;1.00
1137;DHT22;557;48.466;7.950;2022-08-03T15:40:58;38.80;1.00
1137;DHT22;557;48.466;7.950;2022-08-03T15:43:44;38.80;1.00
1137;DHT22;557;48.466;7.950;2022-08-03T15:46:30;39.10;1.00
1137;DHT22;557;48.466;7.950;2022-08-03T15:49:17;39.20;1.00
1137;DHT22;557;48.466;7.950;2022-08-03T15:52:04;39.10;1.00
1137;DHT22;557;48.466;7.950;2022-08-03T15:54:50;39.20;1.00
1137;DHT22;557;48.466;7.950;2022-08-03T15:57:36;39.20;1.00
1137;DHT22;557;48.466;7.950;2022-08-03T16:00:22;39.40;1.00
1137;DHT22;557;48.466;7.950;2022-08-03T16:03:08;39.80;1.00
1137;DHT22;557;48.466;7.950;2022-08-03T16:05:55;39.90;1.00
1137;DHT22;557;48.466;7.950;2022-08-03T16:08:41;39.30;1.00
1137;DHT22;557;48.466;7.950;2022-08-03T16:11:27;39.20;1.00
1137;DHT22;557;48.466;7.950;2022-08-03T16:14:13;39.10;1.00
1137;DHT22;557;48.466;7.950;2022-08-03T16:16:58;38.90;1.00
1137;DHT22;557;48.466;7.950;2022-08-03T16:19:44;38.40;1.00
1137;DHT22;557;48.466;7.950;2022-08-03T16:22:32;38.10;1.00
1137;DHT22;557;48.466;7.950;2022-08-03T16:25:18;38.40;1.00
1137;DHT22;557;48.466;7.950;2022-08-03T16:28:03;38.70;1.00
1137;DHT22;557;48.466;7.950;2022-08-03T16:30:49;38.80;1.00
1137;DHT22;557;48.466;7.950;2022-08-03T16:33:35;38.80;1.00
1137;DHT22;557;48.466;7.950;2022-08-03T16:36:20;39.10;1.00
1137;DHT22;557;48.466;7.950;2022-08-03T16:39:08;39.60;1.00
1137;DHT22;557;48.466;7.950;2022-08-03T16:41:54;39.90;1.00
1137;DHT22;557;48.466;7.950;2022-08-03T16:44:40;39.50;1.00
1137;DHT22;557;48.466;7.950;2022-08-03T16:47:26;38.80;1.00
1137;DHT22;557;48.466;7.950;2022-08-03T16:50:11;38.30;1.00
1137;DHT22;557;48.466;7.950;2022-08-03T16:52:57;38.20;1.00
1137;DHT22;557;48.466;7.950;2022-08-03T16:55:44;38.30;1.00
1137;DHT22;557;48.466;7.950;2022-08-03T16:58:31;38.30;1.00
1137;DHT22;557;48.466;7.950;2022-08-03T17:01:18;38.20;1.00
1137;DHT22;557;48.466;7.950;2022-08-03T17:04:04;38.10;1.00
1137;DHT22;557;48.466;7.950;2022-08-03T17:06:49;37.90;1.00
1137;DHT22;557;48.466;7.950;2022-08-03T17:09:35;37.90;1.00
1137;DHT22;557;48.466;7.950;2022-08-03T17:12:22;37.40;1.00
1137;DHT22;557;48.466;7.950;2022-08-03T17:15:08;37.10;1.00
1137;DHT22;557;48.466;7.950;2022-08-03T17:18:03;36.90;1.00
1137;DHT22;557;48.466;7.950;2022-08-03T17:20:51;36.80;1.00
1137;DHT22;557;48.466;7.950;2022-08-03T17:23:44;36.40;1.00
1137;DHT22;557;48.466;7.950;2022-08-03T17:26:38;36.10;1.00
1137;DHT22;557;48.466;7.950;2022-08-03T17:29:27;36.10;1.00
1137;DHT22;557;48.466;7.950;2022-08-03T17:32:15;36.00;1.00
1137;DHT22;557;48.466;7.950;2022-08-03T17:35:03;35.70;1.00
1137;DHT22;557;48.466;7.950;2022-08-03T17:37:49;35.40;1.00
1137;DHT22;557;48.466;7.950;2022-08-03T17:40:35;35.30;1.00
1137;DHT22;557;48.466;7.950;2022-08-03T17:43:22;35.10;1.00
1137;DHT22;557;48.466;7.950;2022-08-03T17:46:09;35.00;1.00
1137;DHT22;557;48.466;7.950;2022-08-03T17:48:55;34.90;1.00
1137;DHT22;557;48.466;7.950;2022-08-03T17:51:44;34.70;1.00
1137;DHT22;557;48.466;7.950;2022-08-03T17:54:37;34.40;1.00
1137;DHT22;557;48.466;7.950;2022-08-03T17:57:28;34.10;1.00
1137;DHT22;557;48.466;7.950;2022-08-03T18:00:17;33.80;1.00
1137;DHT22;557;48.466;7.950;2022-08-03T18:03:26;33.80;1.00
1137;DHT22;557;48.466;7.950;2022-08-03T18:06:13;33.90;1.00
1137;DHT22;557;48.466;7.950;2022-08-03T18:09:00;33.70;1.00
1137;DHT22;557;48.466;7.950;2022-08-03T18:11:52;33.50;1.00
1137;DHT22;557;48.466;7.950;2022-08-03T18:14:43;33.20;1.00
1137;DHT22;557;48.466;7.950;2022-08-03T18:17:32;33.00;1.00
1137;DHT22;557;48.466;7.950;2022-08-03T18:20:21;32.80;1.00
1137;DHT22;557;48.466;7.950;2022-08-03T18:23:09;32.60;1.00
1137;DHT22;557;48.466;7.950;2022-08-03T18:25:55;32.40;1.00
1137;DHT22;557;48.466;7.950;2022-08-03T18:28:42;32.20;1.00
1137;DHT22;557;48.466;7.950;2022-08-03T18:31:29;32.10;1.00
1137;DHT22;557;48.466;7.950;2022-08-03T18:34:19;31.90;1.00
1137;DHT22;557;48.466;7.950;2022-08-03T18:37:10;31.80;1.00
1137;DHT22;557;48.466;7.950;2022-08-03T18:39:56;31.60;1.00
1137;DHT22;557;48.466;7.950;2022-08-03T18:42:42;31.60;1.00
1137;DHT22;557;48.466;7.950;2022-08-03T18:45:29;31.50;1.00
1137;DHT22;557;48.466;7.950;2022-08-03T18:48:21;31.40;1.00